Aérodrome :
LOGIN :

S'inscrire | Disclaimer

   EN    FR    IT 

 










Légende :    VFR   VFR Marginal   IFR   IFR Intensif   IFR Très Intensif
Visi : 
Plafond : 
>= 8 km
>= 3000ft
5 à 8 km
1000 à 3000 ft
1500m à 5 km
500 à 1000 ft
800 à 1500m
200 à 500 ft
< 800m
< 200 ft
Symboles :   Orages  Brouillard  Fortes neiges  Fortes précipitations  Vent > 20 kt
SIGMETs :   Divers  Orages  Givrage  Turbulence  Onde Orograph.  Cendres Volcan.







- Altitude de l'aérodrome : 297 ft
- Code IATA : UIP
- Voir les cartes d'approche


LFRQ - Quimper Pluguffan

DERNIER METAR :
  • 241000Z AUTO 24012KT 200V280 9999 BKN024 BKN029 20/14 Q1020 BECMG BKN012

METARs EXPIRÉS :
  • 240930Z AUTO 24012KT 9999 FEW020 BKN027 20/14 Q1020 BECMG BKN012
  • 240900Z AUTO 26010KT 220V290 9999 BKN018 BKN024 BKN031 19/14 Q1020 BECMG BKN012
  • 240830Z AUTO 26011KT 220V280 9999 BKN016 BKN021 BKN028 19/14 Q1020 BECMG BKN012
  • 240800Z AUTO 26010KT 240V300 9999 BKN016 OVC030 18/14 Q1020 NOSIG
  • 240730Z AUTO 25010KT 220V280 9999 BKN014 BKN020 BKN032 19/15 Q1020 BECMG SCT012

Prévision TAF périmée.
Pas de NOTAMs connus pour ce terrain.



MET'MAP, la Météo Aéronautique d'un coup d'oeil ! - Copyright ORBIFLY Décembre 2007 - Disclaimer

ORBIFLY MET'MAP TEAM :

Programmation & Développement : Alexandra Zaïnal
Conception & Développement : Baudouin d'Aumeries
Co-Programmation & Développement : Marc-Olivier Méhu
Soutien technique & logistique : Manuel Goepfert

Contact : metmap@orbifly.com




SOURCES & CREDITS :

   NOAA